createdAt,value
2022-10-23T00:08:42.598Z,99.65
2022-10-23T00:24:24.708Z,99.06
2022-10-23T00:40:07.315Z,98.68
2022-10-23T00:55:50.151Z,100
2022-10-23T01:11:32.550Z,100
2022-10-23T01:27:15.282Z,100
2022-10-23T01:42:57.374Z,99.87
2022-10-23T01:58:39.920Z,99.8
2022-10-23T02:14:22.433Z,99.83
2022-10-23T02:30:05.139Z,100
2022-10-23T02:45:47.348Z,100
2022-10-23T03:01:29.594Z,100
2022-10-23T03:17:12.473Z,100
2022-10-23T03:32:54.541Z,100
2022-10-23T03:48:36.714Z,99.42
2022-10-23T04:04:19.713Z,99.05
2022-10-23T04:20:02.267Z,98.45
2022-10-23T04:35:44.640Z,97.55
2022-10-23T04:51:27.199Z,96.87
2022-10-23T05:07:09.887Z,96.55
2022-10-23T05:22:52.227Z,96.61
2022-10-23T05:38:34.371Z,96.67
2022-10-23T05:54:17.108Z,96.84
2022-10-23T06:09:59.719Z,97.17
2022-10-23T06:25:42.763Z,98.1
2022-10-23T06:41:25.737Z,98.86
2022-10-23T06:57:08.371Z,100
2022-10-23T07:12:51.295Z,100
2022-10-23T07:28:34.006Z,100
2022-10-23T07:44:16.666Z,100
2022-10-23T07:59:58.667Z,100
2022-10-23T08:15:40.937Z,100
2022-10-23T08:31:23.880Z,88.63
2022-10-23T08:47:06.078Z,78.71
2022-10-23T09:02:48.702Z,68.2
2022-10-23T09:18:30.819Z,64.92
2022-10-23T09:34:13.741Z,60.91
2022-10-23T09:49:55.672Z,61.52
2022-10-23T10:05:37.859Z,60.15
2022-10-23T10:21:20.157Z,55.14
2022-10-23T10:37:02.088Z,53.77
2022-10-23T10:52:44.124Z,55.17
2022-10-23T11:08:26.868Z,55.93
2022-10-23T11:24:08.950Z,55.07
2022-10-23T11:39:51.398Z,53.78
2022-10-23T11:55:33.607Z,52.12
2022-10-23T12:11:15.595Z,51.4
2022-10-23T12:26:57.939Z,50.31
2022-10-23T12:42:40.698Z,51.55
2022-10-23T12:58:23.569Z,54.9
2022-10-23T13:14:06.313Z,56.85
2022-10-23T13:14:53.537Z,56.53
2022-10-23T13:30:36.254Z,59.43
2022-10-23T13:46:19.202Z,60.2
2022-10-23T14:02:02.100Z,59.2
2022-10-23T14:17:44.542Z,61.04
2022-10-23T14:33:27.302Z,63.79
2022-10-23T14:49:09.427Z,67.31
2022-10-23T15:04:51.588Z,68.59
2022-10-23T15:20:34.252Z,70.85
2022-10-23T15:36:17.213Z,73.95
2022-10-23T15:51:59.431Z,76.41
2022-10-23T16:07:42.175Z,79.58
2022-10-23T16:23:24.272Z,84.33
2022-10-23T16:39:06.960Z,85.82
2022-10-23T16:54:49.537Z,87.11
2022-10-23T17:10:31.873Z,87.98
2022-10-23T17:26:13.913Z,87.74
2022-10-23T17:41:56.455Z,87.04
2022-10-23T17:57:39.454Z,85.96
2022-10-23T18:13:22.388Z,85.11
2022-10-23T18:29:04.811Z,84.09
2022-10-23T18:44:47.644Z,83.16
2022-10-23T19:00:30.309Z,82.96
2022-10-23T19:16:13.183Z,82.76
2022-10-23T19:31:55.649Z,82.9
2022-10-23T19:47:38.132Z,83.16
2022-10-23T20:03:20.237Z,83.4
2022-10-23T20:19:03.006Z,83.83
2022-10-23T20:34:45.432Z,84.04
2022-10-23T20:50:28.390Z,84.98
2022-10-23T21:06:11.261Z,85.54
2022-10-23T21:21:54.092Z,86.42
2022-10-23T21:37:36.557Z,87.71
2022-10-23T21:53:18.724Z,89.06
2022-10-23T22:09:01.533Z,88.72
2022-10-23T22:24:44.498Z,88.4
2022-10-23T22:40:26.842Z,88.31
2022-10-23T22:56:08.998Z,90.41
2022-10-23T23:11:51.350Z,94.08
2022-10-23T23:27:33.948Z,97.12
2022-10-23T23:43:16.602Z,100
2022-10-23T23:58:59.464Z,100
